Time;durP1;ratioP1;P1;durP2;ratioP2;P2;SDS_P1;SDS_P2;PMS_P1;PMS_P2;Temp;Humidity;BMP_temperature;BMP_pressure;BME280_temperature;BME280_humidity;BME280_pressure;Samples;Min_cycle;Max_cycle;Signal;HPM_P1;HPM_P2
2022/09/03 00:00:36;;;;;;;8.18;4.30;;;;;;;16.14;57.75;101000.47;5092858;28;20032;-66
2022/09/03 00:03:16;;;;;;;6.13;4.10;;;;;;;16.17;57.42;100995.44;5092621;28;20394;-66
2022/09/03 00:06:19;;;;;;;4.57;3.75;;;;;;;16.14;56.52;100998.59;5092445;28;20032;-66
2022/09/03 00:08:58;;;;;;;7.55;4.32;;;;;;;16.10;58.08;100999.25;5092611;28;20382;-66
2022/09/03 00:11:31;;;;;;;5.18;3.80;;;;;;;16.10;58.49;100997.38;5092715;28;20161;-66
2022/09/03 00:14:04;;;;;;;5.60;3.67;;;;;;;16.03;58.75;100998.53;5092674;28;20019;-66
2022/09/03 00:16:46;;;;;;;8.25;5.03;;;;;;;15.99;57.72;100987.41;5092453;28;20103;-66
2022/09/03 00:19:16;;;;;;;7.50;4.05;;;;;;;16.03;57.84;100998.53;5092218;28;20028;-66
2022/09/03 00:21:59;;;;;;;5.90;4.07;;;;;;;16.03;58.50;101002.03;5092343;28;20530;-66
2022/09/03 00:24:28;;;;;;;7.35;4.25;;;;;;;16.03;59.39;100999.34;5092248;28;20528;-66
2022/09/03 00:27:02;;;;;;;7.05;3.53;;;;;;;16.00;57.84;100997.94;5092201;28;20081;-66
2022/09/03 00:29:38;;;;;;;7.63;4.18;;;;;;;15.99;58.44;100996.31;5092096;28;20019;-69
2022/09/03 00:32:13;;;;;;;6.05;3.83;;;;;;;16.02;58.66;101004.97;5092113;28;20053;-69
2022/09/03 00:34:43;;;;;;;8.25;4.20;;;;;;;16.02;59.45;100996.91;5092026;28;20032;-69
2022/09/03 00:37:10;;;;;;;8.63;5.03;;;;;;;15.98;58.27;100992.00;5092100;28;20649;-69
2022/09/03 00:39:37;;;;;;;7.90;4.55;;;;;;;15.97;58.33;100997.59;5092073;28;20024;-69
2022/09/03 00:42:11;;;;;;;8.02;4.50;;;;;;;15.96;58.38;100996.78;5091912;28;20032;-69
2022/09/03 00:44:55;;;;;;;5.55;3.85;;;;;;;15.97;58.38;101000.28;5091843;28;20024;-69
2022/09/03 00:47:44;;;;;;;8.13;4.75;;;;;;;15.90;58.25;100996.84;5091914;28;20020;-69
2022/09/03 00:50:45;;;;;;;6.32;4.22;;;;;;;15.86;59.14;100995.69;5091712;28;20110;-69
2022/09/03 00:53:39;;;;;;;8.63;3.95;;;;;;;15.77;59.87;100997.84;5091827;28;20039;-69
2022/09/03 00:56:15;;;;;;;5.97;4.05;;;;;;;15.76;59.63;101007.78;5091493;28;20471;-69
2022/09/03 00:58:57;;;;;;;7.25;4.10;;;;;;;15.75;59.03;100997.28;5091426;28;20016;-69
2022/09/03 01:01:39;;;;;;;6.80;4.25;;;;;;;15.70;59.86;100986.38;5091689;28;20554;-69
2022/09/03 01:04:32;;;;;;;8.10;4.45;;;;;;;15.74;59.44;100998.31;5091186;28;20097;-69
2022/09/03 01:07:21;;;;;;;5.45;4.22;;;;;;;15.71;59.58;100991.50;5091433;28;20028;-69
2022/09/03 01:10:17;;;;;;;8.35;4.88;;;;;;;15.68;58.97;100985.75;5091519;28;20024;-69
2022/09/03 01:13:02;;;;;;;7.30;4.60;;;;;;;15.66;58.54;100996.72;5091445;28;20375;-69
2022/09/03 01:16:06;;;;;;;7.07;3.97;;;;;;;15.61;58.64;100985.81;5091274;28;20023;-69
2022/09/03 01:19:00;;;;;;;5.55;4.15;;;;;;;15.64;58.92;100998.00;5091274;28;20028;-69
2022/09/03 01:22:06;;;;;;;8.80;4.53;;;;;;;15.62;59.49;101000.09;5091122;28;20036;-69
2022/09/03 01:25:09;;;;;;;6.97;4.30;;;;;;;15.61;58.82;100995.75;5091174;28;20036;-69
2022/09/03 01:27:53;;;;;;;6.90;4.20;;;;;;;15.58;59.03;100994.34;5091038;28;20028;-69
2022/09/03 01:30:21;;;;;;;10.25;4.53;;;;;;;15.53;59.86;100989.63;5072896;28;20069;-69
2022/09/03 01:33:11;;;;;;;5.40;3.80;;;;;;;15.50;59.35;100987.41;5090960;28;20028;-69
2022/09/03 01:35:36;;;;;;;6.80;4.53;;;;;;;15.48;59.68;100997.59;5091030;28;20039;-69
2022/09/03 01:38:30;;;;;;;6.63;4.47;;;;;;;15.45;59.90;100999.88;5090936;28;20020;-69
2022/09/03 01:44:05;;;;;;;5.30;4.03;;;;;;;15.38;59.67;100996.44;5090695;28;20498;-66
2022/09/03 01:46:41;;;;;;;6.72;4.80;;;;;;;15.34;60.32;100996.91;5090728;28;20517;-66
2022/09/03 01:49:40;;;;;;;7.30;4.03;;;;;;;15.31;60.77;100996.53;5090642;28;20028;-66
2022/09/03 01:52:16;;;;;;;9.38;4.63;;;;;;;15.25;60.47;100995.56;5073313;28;20038;-66
2022/09/03 01:55:10;;;;;;;8.40;4.05;;;;;;;15.22;60.22;100989.81;5090538;28;20024;-66
2022/09/03 01:57:58;;;;;;;6.75;4.38;;;;;;;15.21;59.94;100991.69;5090430;28;20027;-66
2022/09/03 02:00:26;;;;;;;8.13;4.10;;;;;;;15.16;60.50;100996.91;5090434;28;20056;-66
2022/09/03 02:02:52;;;;;;;7.65;4.05;;;;;;;15.22;60.44;101001.41;5090355;28;20059;-66
2022/09/03 02:05:24;;;;;;;5.60;4.43;;;;;;;15.19;60.74;100996.44;5089993;28;20102;-66
2022/09/03 02:07:56;;;;;;;7.65;4.10;;;;;;;15.17;60.51;100998.56;5090516;28;20040;-65
2022/09/03 02:10:55;;;;;;;6.97;4.60;;;;;;;15.13;60.69;100994.66;5089713;28;20027;-66
2022/09/03 02:13:27;;;;;;;10.25;4.85;;;;;;;15.07;60.85;100996.38;5064181;28;20028;-66
2022/09/03 02:15:56;;;;;;;5.40;4.30;;;;;;;15.04;61.11;100988.78;5090183;28;20059;-65
2022/09/03 02:18:30;;;;;;;7.80;4.30;;;;;;;15.04;61.46;100993.34;5090237;28;20024;-66
2022/09/03 02:20:56;;;;;;;7.35;4.30;;;;;;;15.03;61.11;100991.66;5090174;28;20031;-66
2022/09/03 02:23:22;;;;;;;6.55;4.95;;;;;;;14.96;61.12;100983.69;5090051;28;20173;-65
2022/09/03 02:25:53;;;;;;;6.40;4.80;;;;;;;14.93;61.35;100986.00;5089907;28;20442;-66
2022/09/03 02:28:19;;;;;;;8.93;4.83;;;;;;;14.90;61.60;100982.69;5089905;28;20031;-66
2022/09/03 02:30:45;;;;;;;7.00;4.13;;;;;;;14.88;61.46;100984.81;5089861;28;20028;-66
2022/09/03 02:33:10;;;;;;;6.55;4.22;;;;;;;14.85;61.98;100982.53;5089798;28;20060;-66
2022/09/03 02:35:36;;;;;;;9.80;4.40;;;;;;;14.87;61.46;100985.00;5089909;28;20028;-66
2022/09/03 02:38:20;;;;;;;4.40;3.58;;;;;;;14.92;61.61;100984.34;5089843;28;20035;-66
2022/09/03 02:40:46;;;;;;;8.23;4.90;;;;;;;14.89;61.37;100989.13;5089580;28;20077;-66
2022/09/03 02:43:26;;;;;;;5.60;4.47;;;;;;;14.90;62.01;100992.63;5089776;28;20462;-66
2022/09/03 02:45:58;;;;;;;8.27;4.35;;;;;;;14.84;62.09;100978.22;5089495;28;20036;-66
2022/09/03 02:48:24;;;;;;;10.38;4.20;;;;;;;14.82;61.75;100977.63;5089678;28;20058;-66
2022/09/03 02:50:49;;;;;;;7.80;4.15;;;;;;;14.85;61.66;100985.22;5089611;28;20036;-66
2022/09/03 02:53:15;;;;;;;6.38;4.38;;;;;;;14.85;61.65;100982.53;5089627;28;20028;-65
2022/09/03 02:55:40;;;;;;;7.38;4.20;;;;;;;14.81;61.26;100983.22;5089577;28;20032;-66
2022/09/03 02:58:07;;;;;;;8.85;4.60;;;;;;;14.78;61.68;100995.22;5089259;28;20075;-68
2022/09/03 03:00:34;;;;;;;8.55;4.40;;;;;;;14.76;61.89;100986.56;5089602;28;20035;-69
2022/09/03 03:03:00;;;;;;;6.05;4.40;;;;;;;14.75;62.20;100986.78;5089430;28;20483;-69
2022/09/03 03:05:42;;;;;;;8.98;4.53;;;;;;;14.75;61.92;100984.09;5089234;28;20048;-69
2022/09/03 03:08:08;;;;;;;5.35;3.88;;;;;;;14.72;62.43;100981.84;5089443;28;20028;-69
2022/09/03 03:10:34;;;;;;;5.85;3.78;;;;;;;14.75;62.45;100987.63;5089480;28;20540;-69
2022/09/03 03:13:00;;;;;;;6.72;4.15;;;;;;;14.76;62.75;100986.56;5089443;28;20032;-69
2022/09/03 03:15:26;;;;;;;6.65;4.07;;;;;;;14.75;62.87;100989.47;5089418;28;20035;-69
2022/09/03 03:17:55;;;;;;;16.77;4.95;;;;;;;14.67;62.93;100985.19;5089376;28;20024;-69
2022/09/03 03:20:21;;;;;;;6.72;4.70;;;;;;;14.60;62.55;100981.75;5090258;28;20036;-69
2022/09/03 03:22:46;;;;;;;5.70;4.00;;;;;;;14.51;63.28;100969.63;5093553;28;20039;-69
2022/09/03 03:25:12;;;;;;;6.78;4.20;;;;;;;14.58;63.59;100986.53;5093291;28;20067;-69
2022/09/03 03:27:39;;;;;;;7.15;3.88;;;;;;;14.61;62.05;100983.41;5093350;28;20467;-69
2022/09/03 03:30:09;;;;;;;7.28;5.13;;;;;;;14.61;62.52;100980.72;5093420;28;20484;-69
2022/09/03 03:32:38;;;;;;;7.55;4.43;;;;;;;14.57;62.63;100980.34;5093281;28;20398;-69
2022/09/03 03:35:05;;;;;;;8.85;4.60;;;;;;;14.57;62.52;100980.34;5093077;28;20109;-69
2022/09/03 03:37:32;;;;;;;8.45;4.10;;;;;;;14.56;62.38;100985.91;5093244;28;20034;-69
2022/09/03 03:39:57;;;;;;;7.93;4.88;;;;;;;14.55;62.49;100989.66;5093290;28;20113;-69
2022/09/03 03:42:23;;;;;;;7.20;3.88;;;;;;;14.55;63.16;100989.66;5093138;28;20426;-69
2022/09/03 03:44:48;;;;;;;6.60;4.15;;;;;;;14.58;63.60;100986.53;5093062;28;20028;-69
2022/09/03 03:47:15;;;;;;;5.50;4.38;;;;;;;14.58;63.47;100986.53;5092982;28;20030;-69
2022/09/03 03:49:41;;;;;;;4.72;4.22;;;;;;;14.56;63.23;100985.91;5093036;28;20035;-69
2022/09/03 03:52:06;;;;;;;6.10;4.00;;;;;;;14.53;62.80;100981.81;5093051;28;20395;-69
2022/09/03 03:54:32;;;;;;;7.88;4.10;;;;;;;14.50;63.28;100992.97;5092851;28;20042;-69
2022/09/03 03:56:57;;;;;;;5.97;3.90;;;;;;;14.28;64.50;100960.31;5092786;28;20035;-69
2022/09/03 03:59:22;;;;;;;9.90;4.43;;;;;;;14.45;63.39;100993.59;5092923;28;20070;-69
2022/09/03 04:01:49;;;;;;;7.20;4.45;;;;;;;14.43;63.27;101001.03;5092672;28;20062;-69
2022/09/03 04:04:15;;;;;;;6.10;4.05;;;;;;;14.43;62.98;100990.31;5092439;28;20052;-69
2022/09/03 04:06:41;;;;;;;12.07;4.70;;;;;;;14.39;64.64;100991.00;5092683;28;20038;-69
2022/09/03 04:09:06;;;;;;;6.65;4.43;;;;;;;14.33;63.81;100986.47;5092707;28;20046;-69
2022/09/03 04:11:31;;;;;;;6.80;4.10;;;;;;;14.27;64.27;100987.34;5092599;28;20056;-69
2022/09/03 04:13:57;;;;;;;5.97;4.57;;;;;;;14.15;65.41;100977.34;5092565;28;20032;-69
2022/09/03 04:16:25;;;;;;;10.88;4.45;;;;;;;14.10;64.85;100982.53;5074389;28;20394;-69
2022/09/03 04:18:51;;;;;;;6.95;4.00;;;;;;;14.05;65.36;100982.34;5092397;28;20106;-69
2022/09/03 04:21:19;;;;;;;8.23;4.43;;;;;;;14.08;65.24;100979.22;5092401;28;20077;-69
2022/09/03 04:23:47;;;;;;;7.30;4.35;;;;;;;14.08;64.93;100973.06;5092330;28;20019;-69
2022/09/03 04:26:15;;;;;;;6.72;3.90;;;;;;;14.07;65.51;100963.34;5092278;28;20032;-69
2022/09/03 04:28:41;;;;;;;5.35;3.83;;;;;;;14.00;65.35;100961.53;5092245;28;20538;-69
2022/09/03 04:31:08;;;;;;;7.43;4.78;;;;;;;14.10;65.26;100971.81;5092102;28;20127;-69
2022/09/03 04:33:36;;;;;;;6.53;3.95;;;;;;;14.10;65.48;100974.47;5091455;28;20087;-69
2022/09/03 04:36:04;;;;;;;7.57;4.97;;;;;;;14.06;65.04;100967.09;5092088;28;20483;-69
2022/09/03 04:38:31;;;;;;;8.25;3.80;;;;;;;14.10;65.18;100968.31;5092130;28;20052;-69
2022/09/03 04:40:58;;;;;;;5.20;4.00;;;;;;;14.10;65.06;100960.25;5092152;28;20371;-69
2022/09/03 04:43:23;;;;;;;8.10;4.30;;;;;;;14.14;64.96;100967.63;5091724;28;20508;-69
2022/09/03 04:45:48;;;;;;;7.25;4.35;;;;;;;14.14;64.86;100966.81;5091809;28;20036;-69
2022/09/03 04:48:14;;;;;;;8.02;4.13;;;;;;;14.11;65.07;100965.38;5091851;28;20042;-69
2022/09/03 04:50:40;;;;;;;8.00;3.83;;;;;;;14.13;64.81;100968.69;5073740;28;20047;-69
2022/09/03 04:53:05;;;;;;;7.28;4.22;;;;;;;14.14;64.56;100970.31;5091759;28;20126;-69
2022/09/03 04:55:36;;;;;;;7.15;4.00;;;;;;;14.16;65.34;100973.59;5091653;28;20412;-69
2022/09/03 04:58:02;;;;;;;9.88;4.95;;;;;;;14.17;65.51;100971.75;5091627;28;20043;-69
2022/09/03 05:00:27;;;;;;;9.57;5.00;;;;;;;14.15;65.44;100981.88;5091564;28;20406;-69
2022/09/03 05:02:53;;;;;;;6.47;4.68;;;;;;;14.12;65.73;100984.97;5091544;28;20028;-69
2022/09/03 05:05:18;;;;;;;13.82;5.03;;;;;;;14.08;65.42;100989.97;5093850;28;20042;-69
2022/09/03 05:07:44;;;;;;;8.00;4.10;;;;;;;14.03;66.27;100987.09;5093518;28;20047;-69
2022/09/03 05:10:19;;;;;;;9.20;4.75;;;;;;;14.01;67.11;100987.31;5091500;28;20032;-69
2022/09/03 05:13:00;;;;;;;38.08;8.60;;;;;;;13.95;67.45;100974.78;5091146;28;20147;-69
2022/09/03 05:15:27;;;;;;;8.52;4.72;;;;;;;13.88;67.06;100983.91;5091357;28;20016;-69
2022/09/03 05:18:02;;;;;;;16.63;7.05;;;;;;;13.94;67.21;100988.41;5090963;28;20383;-69
2022/09/03 05:20:30;;;;;;;12.85;5.15;;;;;;;13.96;67.78;100986.31;5091178;28;20039;-69
2022/09/03 05:22:56;;;;;;;8.70;4.57;;;;;;;13.96;67.04;100979.13;5073116;28;20380;-69
2022/09/03 05:25:23;;;;;;;7.78;4.95;;;;;;;13.95;67.51;100982.81;5091012;28;20063;-69
2022/09/03 05:27:48;;;;;;;9.80;5.43;;;;;;;13.97;67.50;100978.06;5091168;28;20024;-69
2022/09/03 05:30:14;;;;;;;9.63;5.10;;;;;;;14.06;67.32;100986.66;5091160;28;20471;-69
2022/09/03 05:32:40;;;;;;;11.57;5.53;;;;;;;14.08;67.60;100981.91;5091024;28;20475;-69
2022/09/03 05:35:07;;;;;;;593.42;113.07;;;;;;;14.10;67.50;100974.47;5090496;28;20059;-69
2022/09/03 05:37:32;;;;;;;61.40;11.75;;;;;;;14.13;67.15;100978.59;5090954;28;20775;-66
2022/09/03 05:39:57;;;;;;;49.00;9.90;;;;;;;14.18;66.92;100984.94;5090858;28;20030;-66
2022/09/03 05:42:23;;;;;;;10.35;5.82;;;;;;;14.25;66.13;100974.16;5090913;28;20028;-66
2022/09/03 05:44:48;;;;;;;16.02;5.15;;;;;;;14.35;65.89;100979.03;5089584;28;20027;-65
2022/09/03 05:47:15;;;;;;;11.25;4.32;;;;;;;14.41;65.54;100973.63;5090765;28;20039;-66
2022/09/03 05:49:40;;;;;;;10.40;4.80;;;;;;;14.51;66.56;100981.16;5090746;28;20035;-66
2022/09/03 05:52:06;;;;;;;11.88;4.45;;;;;;;14.56;66.29;100975.19;5072522;28;20503;-66
2022/09/03 05:54:31;;;;;;;7.80;4.45;;;;;;;14.60;65.79;100982.59;5090604;28;20391;-66
2022/09/03 05:56:56;;;;;;;9.50;4.07;;;;;;;14.69;64.57;100985.81;5090484;28;20391;-66
2022/09/03 05:59:22;;;;;;;5.40;3.97;;;;;;;14.77;65.62;100973.97;5090546;28;20383;-66
2022/09/03 06:01:48;;;;;;;4.75;3.88;;;;;;;14.86;64.80;100984.19;5090512;28;20028;-66
2022/09/03 06:04:15;;;;;;;7.43;4.25;;;;;;;14.96;64.58;100977.47;5090226;28;20048;-65
2022/09/03 06:06:43;;;;;;;4.88;3.75;;;;;;;15.01;63.44;100978.47;5090453;28;20028;-66
2022/09/03 06:09:20;;;;;;;23.08;4.72;;;;;;;15.07;65.55;100988.31;5090396;28;20027;-66
2022/09/03 06:11:48;;;;;;;9.18;3.97;;;;;;;15.11;64.32;100984.13;5090234;28;20429;-66
2022/09/03 06:14:15;;;;;;;9.68;4.22;;;;;;;15.23;64.25;100983.41;5090181;28;20032;-66
2022/09/03 06:16:43;;;;;;;11.02;5.05;;;;;;;15.34;62.54;100978.09;5090207;28;20483;-65
2022/09/03 06:19:09;;;;;;;6.93;3.42;;;;;;;15.45;63.58;100973.00;5090252;28;20028;-66
2022/09/03 06:21:43;;;;;;;9.02;4.60;;;;;;;15.55;62.95;100979.47;5090120;28;20051;-66
2022/09/03 06:24:18;;;;;;;11.60;4.43;;;;;;;15.65;62.43;100978.13;5090038;28;20020;-66
2022/09/03 06:26:45;;;;;;;11.15;4.43;;;;;;;15.75;61.65;100979.25;5090031;28;20111;-66
2022/09/03 06:29:11;;;;;;;4.93;3.85;;;;;;;15.86;60.90;100984.91;5090016;28;20368;-66
2022/09/03 06:31:36;;;;;;;7.40;3.88;;;;;;;15.98;61.19;100983.91;5089860;28;20160;-66
2022/09/03 06:34:02;;;;;;;9.23;3.50;;;;;;;16.07;60.94;100980.91;5089807;28;20036;-66
2022/09/03 06:36:27;;;;;;;5.47;3.53;;;;;;;16.22;61.39;100992.06;5071742;28;20047;-66
2022/09/03 06:38:55;;;;;;;7.00;3.78;;;;;;;16.35;60.53;100983.75;5090001;28;20032;-66
2022/09/03 06:41:26;;;;;;;6.28;3.60;;;;;;;16.46;58.74;100986.72;5089863;28;20050;-66
2022/09/03 06:44:01;;;;;;;7.50;4.00;;;;;;;16.55;58.82;100988.00;5089756;28;20032;-66
2022/09/03 06:46:28;;;;;;;6.97;3.92;;;;;;;16.61;58.34;100987.91;5089656;28;20114;-65
2022/09/03 06:48:54;;;;;;;8.07;4.00;;;;;;;16.72;58.72;100990.84;5089652;28;20101;-66
2022/09/03 06:51:22;;;;;;;10.15;3.90;;;;;;;16.83;57.83;100985.47;5089617;28;20455;-66
2022/09/03 06:53:50;;;;;;;7.68;4.22;;;;;;;16.98;58.76;100982.28;5089885;28;20028;-66
2022/09/03 06:56:25;;;;;;;5.53;3.50;;;;;;;17.09;57.85;100986.84;5089171;28;20544;-65
2022/09/03 06:58:54;;;;;;;7.63;3.67;;;;;;;17.21;57.37;100989.53;5089263;28;20028;-66
2022/09/03 07:01:29;;;;;;;7.45;3.88;;;;;;;17.29;57.29;100982.94;5089492;28;20079;-66
2022/09/03 07:04:03;;;;;;;7.95;3.05;;;;;;;17.42;57.11;100980.00;5071420;28;20064;-66
2022/09/03 07:06:32;;;;;;;4.90;3.45;;;;;;;17.49;56.20;100982.53;5089213;28;20079;-66
2022/09/03 07:08:58;;;;;;;9.50;3.78;;;;;;;17.50;55.86;100976.06;5089442;28;20047;-66
2022/09/03 07:11:28;;;;;;;4.40;3.15;;;;;;;17.60;55.81;100983.56;5089527;28;20036;-66
2022/09/03 07:13:54;;;;;;;3.95;2.83;;;;;;;17.64;55.26;100987.41;5089395;28;20031;-67
2022/09/03 07:16:32;;;;;;;4.65;2.90;;;;;;;17.72;55.46;100982.44;5089252;28;20435;-66
2022/09/03 07:18:57;;;;;;;6.40;2.70;;;;;;;17.79;55.13;100984.19;5088981;28;20039;-66
2022/09/03 07:21:28;;;;;;;10.70;3.25;;;;;;;17.83;55.30;100988.06;5089309;28;20032;-66
2022/09/03 07:23:54;;;;;;;16.42;4.30;;;;;;;17.91;54.55;100984.97;5088967;28;20387;-66
2022/09/03 07:26:25;;;;;;;7.07;3.15;;;;;;;17.98;54.37;100982.16;5089403;28;20471;-66
2022/09/03 07:28:53;;;;;;;5.17;2.97;;;;;;;18.03;54.31;100982.25;5089259;28;20492;-66
2022/09/03 07:31:26;;;;;;;3.30;2.75;;;;;;;18.09;54.53;100989.34;5089261;28;20036;-66
2022/09/03 07:33:59;;;;;;;10.18;3.45;;;;;;;18.13;54.10;100985.09;5089128;28;20028;-66
2022/09/03 07:36:28;;;;;;;6.03;2.63;;;;;;;18.18;53.68;100986.03;5089103;28;20153;-66
2022/09/03 07:38:55;;;;;;;5.72;3.00;;;;;;;18.22;53.45;100991.75;5088984;28;20024;-66
2022/09/03 07:41:22;;;;;;;4.47;2.60;;;;;;;18.27;53.32;100994.53;5089283;28;20039;-66
2022/09/03 07:43:47;;;;;;;2.95;2.67;;;;;;;18.29;52.88;100995.09;5089252;28;20027;-66
2022/09/03 07:46:22;;;;;;;4.32;2.83;;;;;;;18.33;53.91;100998.94;5088978;28;20036;-66
2022/09/03 07:48:52;;;;;;;4.57;3.10;;;;;;;18.40;53.28;100999.59;5089067;28;20049;-66
2022/09/03 07:51:19;;;;;;;4.78;2.83;;;;;;;18.39;53.07;100992.56;5088880;28;20143;-66
2022/09/03 07:53:46;;;;;;;6.55;2.53;;;;;;;18.50;54.24;100998.97;5089069;28;20036;-66
2022/09/03 07:56:12;;;;;;;6.43;3.35;;;;;;;18.52;52.96;100998.69;5089081;28;20857;-66
2022/09/03 07:58:40;;;;;;;7.10;3.22;;;;;;;18.59;51.59;101002.06;5088958;28;20443;-66
2022/09/03 08:01:11;;;;;;;3.83;2.78;;;;;;;18.60;52.19;100996.41;5088969;28;20024;-66
2022/09/03 08:03:38;;;;;;;5.10;2.70;;;;;;;18.72;52.43;101001.72;5088580;28;20063;-65
2022/09/03 08:06:06;;;;;;;4.35;3.15;;;;;;;18.87;53.40;100998.47;5088918;28;20310;-65
2022/09/03 08:08:35;;;;;;;4.28;2.38;;;;;;;18.98;52.06;101000.25;5091705;28;20066;-64
2022/09/03 08:11:15;;;;;;;5.28;3.20;;;;;;;19.12;52.37;100997.19;5092248;28;20043;-64
2022/09/03 08:13:43;;;;;;;6.65;2.90;;;;;;;19.34;51.31;101003.44;5092593;28;20023;-65
2022/09/03 08:16:10;;;;;;;5.85;3.05;;;;;;;19.64;51.38;100992.13;5092161;28;20024;-64
2022/09/03 08:18:38;;;;;;;8.70;2.97;;;;;;;19.90;50.45;100997.88;5092450;28;20039;-65
2022/09/03 08:21:15;;;;;;;6.68;3.03;;;;;;;20.29;50.20;100992.28;5092444;28;20035;-65
2022/09/03 08:23:48;;;;;;;5.30;2.80;;;;;;;21.11;47.66;100990.94;5092285;28;20093;-65
2022/09/03 08:26:15;;;;;;;4.47;2.70;;;;;;;22.72;44.44;101005.44;5093715;28;20092;-66
2022/09/03 08:28:42;;;;;;;7.15;3.30;;;;;;;24.47;40.95;100998.06;5092396;28;20540;-66
2022/09/03 08:31:12;;;;;;;6.13;3.15;;;;;;;25.57;38.25;101001.81;5092044;28;20035;-66
2022/09/03 08:33:46;;;;;;;4.50;2.72;;;;;;;25.98;36.75;101003.16;5092018;28;20043;-66
2022/09/03 08:36:17;;;;;;;14.32;3.20;;;;;;;25.97;36.27;101009.75;5092079;28;20031;-67
2022/09/03 08:38:45;;;;;;;7.37;3.67;;;;;;;25.15;37.41;101010.75;5092162;28;20517;-66
2022/09/03 08:41:19;;;;;;;4.63;2.72;;;;;;;24.14;40.01;101008.69;5091639;28;20028;-66
2022/09/03 08:43:53;;;;;;;4.18;2.88;;;;;;;23.41;40.40;101017.50;5091830;28;20046;-66
2022/09/03 08:46:24;;;;;;;6.65;2.90;;;;;;;22.82;42.15;101010.88;5091992;28;20035;-66
2022/09/03 08:48:51;;;;;;;10.07;3.70;;;;;;;22.47;44.07;101011.69;5092033;28;20032;-66
2022/09/03 08:51:22;;;;;;;5.90;2.80;;;;;;;22.13;44.00;101014.91;5091885;28;20020;-66
2022/09/03 08:53:54;;;;;;;3.55;2.60;;;;;;;21.91;45.07;101017.06;5091856;28;20107;-66
2022/09/03 08:56:28;;;;;;;4.40;3.03;;;;;;;21.70;44.96;101016.19;5091585;28;20024;-66
2022/09/03 08:58:54;;;;;;;5.03;3.10;;;;;;;21.63;45.16;101014.53;5091720;28;20051;-66
2022/09/03 09:01:42;;;;;;;4.18;2.78;;;;;;;21.61;46.82;101008.56;5091540;28;20028;-66
2022/09/03 09:04:14;;;;;;;4.10;2.60;;;;;;;21.55;46.67;101001.47;5090914;28;20063;-66
2022/09/03 09:06:45;;;;;;;5.47;2.78;;;;;;;21.59;45.95;101004.50;5091509;28;20028;-66
2022/09/03 09:09:40;;;;;;;9.88;2.95;;;;;;;21.66;46.35;101011.28;5091662;28;20024;-66
2022/09/03 09:12:40;;;;;;;7.28;3.60;;;;;;;21.72;46.04;101003.16;5091045;28;20062;-66
2022/09/03 09:15:05;;;;;;;6.05;2.95;;;;;;;21.73;45.59;101010.22;5091371;28;20495;-66
2022/09/03 09:17:31;;;;;;;4.37;2.87;;;;;;;21.77;44.47;101012.16;5091294;28;20080;-66
2022/09/03 09:20:02;;;;;;;4.82;2.42;;;;;;;21.80;46.83;101006.19;5090974;28;20335;-66
2022/09/03 09:22:35;;;;;;;5.20;2.58;;;;;;;21.87;45.03;101006.72;5091207;28;20034;-66
2022/09/03 09:25:07;;;;;;;6.82;2.33;;;;;;;21.86;45.83;100999.66;5091049;28;20023;-66
2022/09/03 09:27:33;;;;;;;6.30;3.10;;;;;;;21.99;45.34;101005.66;5091170;28;20089;-66
2022/09/03 09:30:02;;;;;;;3.97;2.33;;;;;;;22.09;45.31;101011.13;5091214;28;20028;-66
2022/09/03 09:32:30;;;;;;;7.53;3.10;;;;;;;22.19;44.84;101008.44;5090998;28;20116;-66
2022/09/03 09:34:55;;;;;;;3.15;2.38;;;;;;;22.30;44.34;101009.25;5091061;28;20112;-66
2022/09/03 09:37:20;;;;;;;4.43;2.58;;;;;;;22.39;43.49;101001.38;5090923;28;20035;-66
2022/09/03 09:39:59;;;;;;;5.63;2.83;;;;;;;22.45;44.52;100992.97;5091052;28;20031;-66
2022/09/03 09:42:26;;;;;;;7.65;2.78;;;;;;;22.54;43.80;100994.03;5090932;28;20043;-66
2022/09/03 09:44:52;;;;;;;7.55;2.85;;;;;;;22.54;42.69;100996.75;5090751;28;20028;-66
2022/09/03 09:47:37;;;;;;;4.70;2.65;;;;;;;22.55;44.18;100994.84;5090824;28;20051;-66
2022/09/03 09:50:02;;;;;;;2.65;2.13;;;;;;;22.62;43.55;101006.25;5090329;28;20043;-66
2022/09/03 09:52:30;;;;;;;5.03;3.13;;;;;;;22.67;42.95;100997.28;5090721;28;20046;-66
2022/09/03 09:55:13;;;;;;;4.95;2.63;;;;;;;22.77;44.56;101002.72;5090659;28;20024;-66
2022/09/03 09:57:39;;;;;;;4.18;2.55;;;;;;;22.90;43.14;101006.78;5090462;28;20024;-66
2022/09/03 10:00:15;;;;;;;4.47;2.30;;;;;;;23.03;42.74;101014.38;5090522;28;20541;-66
2022/09/03 10:02:49;;;;;;;11.90;3.60;;;;;;;23.09;42.49;101010.53;5090444;28;20028;-66
2022/09/03 10:05:20;;;;;;;6.80;2.47;;;;;;;23.09;41.73;101010.53;5090243;28;20051;-69
2022/09/03 10:08:01;;;;;;;5.20;2.45;;;;;;;23.19;42.66;101007.81;5090368;28;20032;-68
2022/09/03 10:10:33;;;;;;;4.72;2.65;;;;;;;23.33;42.87;101009.94;5090424;28;20430;-68
2022/09/03 10:13:08;;;;;;;5.22;2.35;;;;;;;23.46;42.05;101009.31;5090309;28;20078;-68
2022/09/03 10:15:47;;;;;;;2.95;2.25;;;;;;;23.53;41.91;101007.13;5090174;28;20020;-68
2022/09/03 10:18:47;;;;;;;4.20;2.70;;;;;;;23.56;41.53;101000.31;5090221;28;20055;-71
2022/09/03 10:21:27;;;;;;;8.90;2.53;;;;;;;23.61;41.90;100995.63;5089993;28;20093;-69
2022/09/03 10:24:02;;;;;;;3.25;2.50;;;;;;;23.53;40.92;100981.81;5090068;28;20051;-70
2022/09/03 10:26:30;;;;;;;4.80;2.53;;;;;;;23.69;40.35;100993.44;5090130;28;20028;-70
2022/09/03 10:29:01;;;;;;;5.43;2.28;;;;;;;23.78;41.28;100992.56;5089907;28;20036;-66
2022/09/03 10:31:35;;;;;;;8.52;3.60;;;;;;;23.90;41.18;100996.88;5089169;28;20043;-70
2022/09/03 10:34:00;;;;;;;2.90;2.45;;;;;;;23.95;40.04;100981.31;5089736;28;20028;-71
2022/09/03 10:36:38;;;;;;;5.13;2.42;;;;;;;24.08;40.20;100989.91;5092425;28;20023;-71
2022/09/03 10:39:24;;;;;;;5.40;2.30;;;;;;;24.13;38.98;100989.88;5093656;28;20086;-71
2022/09/03 10:42:05;;;;;;;3.75;2.50;;;;;;;24.21;39.57;100989.28;5075057;28;20059;-71
2022/09/03 10:44:59;;;;;;;3.67;2.95;;;;;;;24.27;40.85;100988.16;5092572;28;20064;-71
2022/09/03 10:47:47;;;;;;;2.35;1.92;;;;;;;24.38;40.47;100988.88;5092628;28;20058;-71
2022/09/03 10:50:25;;;;;;;3.33;2.63;;;;;;;24.43;40.57;100983.38;5093928;28;20023;-71
2022/09/03 10:53:00;;;;;;;3.70;2.33;;;;;;;24.41;40.16;100989.09;5092402;28;20020;-70
2022/09/03 10:55:34;;;;;;;3.40;2.60;;;;;;;24.33;39.85;100987.00;5092816;28;20032;-73
2022/09/03 10:58:24;;;;;;;4.28;2.20;;;;;;;24.27;40.42;100979.97;5092615;28;20027;-65
2022/09/03 11:01:01;;;;;;;4.25;2.00;;;;;;;24.37;40.65;100987.25;5093262;28;20023;-68
2022/09/03 11:03:27;;;;;;;4.18;2.40;;;;;;;24.49;41.61;100983.06;5092828;28;20028;-67
2022/09/03 11:05:59;;;;;;;4.43;2.30;;;;;;;24.48;39.77;100984.16;5092740;28;20020;-68
2022/09/03 11:08:50;;;;;;;4.90;2.63;;;;;;;24.44;41.15;100991.31;5093981;28;20015;-68
2022/09/03 11:11:25;;;;;;;3.35;2.10;;;;;;;24.46;39.10;100985.56;5092972;28;20429;-67
2022/09/03 11:13:56;;;;;;;3.92;2.30;;;;;;;24.45;40.61;100970.31;5092773;28;20038;-67
2022/09/03 11:16:34;;;;;;;4.03;2.97;;;;;;;24.54;40.20;100974.03;5092457;28;20016;-67
2022/09/03 11:19:10;;;;;;;3.28;1.92;;;;;;;24.61;39.13;100976.44;5075513;28;20083;-68
2022/09/03 11:21:37;;;;;;;3.70;2.47;;;;;;;24.62;40.50;100980.75;5092593;28;20382;-67
2022/09/03 11:24:06;;;;;;;3.47;2.38;;;;;;;24.63;39.15;100983.22;5093606;28;20478;-67
2022/09/03 11:26:34;;;;;;;3.80;3.00;;;;;;;24.70;39.32;100967.31;5092386;28;20031;-73
2022/09/03 11:29:12;;;;;;;2.92;2.10;;;;;;;24.77;38.51;100977.88;5092906;28;20031;-72
2022/09/03 11:31:47;;;;;;;7.80;2.67;;;;;;;24.74;39.50;100981.19;5093434;28;20023;-73
2022/09/03 11:34:25;;;;;;;4.47;2.50;;;;;;;24.74;39.43;100975.75;5092056;28;20110;-72
2022/09/03 11:37:03;;;;;;;3.92;2.38;;;;;;;24.76;38.21;100976.28;5092463;28;20031;-73
2022/09/03 11:39:31;;;;;;;4.53;2.08;;;;;;;24.89;38.70;100970.13;5092678;28;20020;-73
2022/09/03 11:42:05;;;;;;;5.50;2.90;;;;;;;25.04;39.20;100974.56;5094582;28;20038;-73
2022/09/03 11:44:39;;;;;;;4.93;2.22;;;;;;;25.10;38.80;100970.69;5095965;28;20028;-73
2022/09/03 11:47:20;;;;;;;3.60;2.10;;;;;;;25.02;38.60;100963.16;5096219;28;20110;-72
2022/09/03 11:49:51;;;;;;;7.47;2.88;;;;;;;25.05;38.89;100964.50;5096285;28;20024;-72